createdAt,value
2023-05-09T00:01:21.443Z,42.83
2023-05-09T00:03:48.423Z,43.03
2023-05-09T00:06:15.431Z,38.08
2023-05-09T00:08:42.134Z,38.38
2023-05-09T00:11:08.790Z,37.95
2023-05-09T00:13:35.697Z,42.88
2023-05-09T00:16:03.468Z,36.20
2023-05-09T00:18:31.120Z,39.47
2023-05-09T00:20:57.906Z,37.97
2023-05-09T00:23:24.578Z,41.17
2023-05-09T00:25:51.263Z,37.85
2023-05-09T00:28:17.880Z,36.47
2023-05-09T00:30:44.919Z,35.47
2023-05-09T00:33:11.885Z,33.50
2023-05-09T00:35:38.547Z,33.55
2023-05-09T00:38:05.210Z,37.28
2023-05-09T00:40:32.006Z,34.00
2023-05-09T00:43:01.798Z,37.95
2023-05-09T00:45:28.471Z,38.75
2023-05-09T00:47:55.822Z,34.83
2023-05-09T00:50:22.854Z,31.17
2023-05-09T00:52:50.584Z,26.83
2023-05-09T00:55:18.434Z,26.75
2023-05-09T00:57:45.398Z,30.02
2023-05-09T01:00:13.453Z,31.98
2023-05-09T01:02:42.916Z,30.08
2023-05-09T01:05:10.694Z,28.88
2023-05-09T01:07:51.017Z,29.85
2023-05-09T01:10:45.728Z,25.52
2023-05-09T01:13:22.215Z,31.90
2023-05-09T01:16:01.514Z,26.88
2023-05-09T01:19:25.321Z,26.38
2023-05-09T01:21:54.457Z,28.75
2023-05-09T01:24:39.857Z,31.48
2023-05-09T01:27:20.632Z,27.52
2023-05-09T01:30:02.976Z,28.98
2023-05-09T01:32:31.903Z,24.15
2023-05-09T01:35:02.480Z,30.10
2023-05-09T01:37:31.641Z,31.00
2023-05-09T01:40:07.495Z,25.25
2023-05-09T01:42:47.400Z,27.15
2023-05-09T01:45:15.459Z,27.25
2023-05-09T01:47:43.927Z,29.25
2023-05-09T01:50:12.584Z,27.38
2023-05-09T01:52:40.984Z,31.60
2023-05-09T01:55:08.804Z,28.27
2023-05-09T01:57:36.989Z,33.40
2023-05-09T02:00:04.957Z,24.33
2023-05-09T02:02:32.656Z,32.05
2023-05-09T02:05:00.785Z,28.38
2023-05-09T02:07:29.669Z,34.92
2023-05-09T02:09:58.954Z,28.98
2023-05-09T02:12:26.658Z,29.95
2023-05-09T02:14:53.404Z,32.13
2023-05-09T02:17:21.523Z,33.58
2023-05-09T02:19:48.332Z,26.45
2023-05-09T02:22:15.719Z,32.22
2023-05-09T02:24:44.605Z,28.13
2023-05-09T02:27:12.871Z,29.55
2023-05-09T02:29:45.815Z,32.28
2023-05-09T02:32:22.340Z,28.20
2023-05-09T02:34:50.928Z,32.72
2023-05-09T02:37:18.618Z,33.05
2023-05-09T02:39:45.943Z,30.40
2023-05-09T02:42:14.625Z,31.50
2023-05-09T02:44:41.313Z,35.97
2023-05-09T02:47:07.997Z,34.90
2023-05-09T02:49:34.684Z,31.58
2023-05-09T02:52:01.812Z,30.85
2023-05-09T02:54:28.422Z,27.25
2023-05-09T02:56:55.194Z,27.60
2023-05-09T02:59:21.941Z,25.35
2023-05-09T03:01:48.635Z,29.42
2023-05-09T03:04:16.487Z,31.58
2023-05-09T03:06:43.260Z,32.53
2023-05-09T03:09:09.979Z,30.83
2023-05-09T03:11:36.819Z,33.35
2023-05-09T03:14:04.597Z,28.98
2023-05-09T03:16:31.713Z,32.90
2023-05-09T03:18:58.429Z,32.28
2023-05-09T03:21:25.245Z,36.58
2023-05-09T03:23:51.976Z,30.65
2023-05-09T03:26:18.637Z,35.92
2023-05-09T03:28:46.903Z,28.08
2023-05-09T03:31:13.546Z,33.00
2023-05-09T03:33:40.613Z,33.60
2023-05-09T03:36:07.593Z,39.80
2023-05-09T03:38:34.352Z,36.90
2023-05-09T03:41:00.941Z,35.30
2023-05-09T03:43:27.603Z,36.35
2023-05-09T03:45:54.314Z,41.85
2023-05-09T03:48:20.957Z,35.45
2023-05-09T03:50:47.629Z,34.88
2023-05-09T03:53:14.291Z,33.92
2023-05-09T03:55:41.009Z,35.50
2023-05-09T03:58:07.672Z,37.97
2023-05-09T04:00:34.708Z,35.38
2023-05-09T04:03:01.473Z,29.58
2023-05-09T04:05:28.185Z,33.60
2023-05-09T04:07:54.901Z,39.25
2023-05-09T04:10:21.618Z,36.40
2023-05-09T04:12:48.550Z,30.05
2023-05-09T04:15:15.882Z,27.55
2023-05-09T04:17:42.896Z,34.35
2023-05-09T04:20:10.757Z,33.67
2023-05-09T04:22:37.409Z,34.22
2023-05-09T04:25:04.687Z,29.90
2023-05-09T04:27:31.834Z,33.90
2023-05-09T04:29:58.505Z,33.13
2023-05-09T04:32:25.670Z,34.85
2023-05-09T04:34:52.316Z,25.23
2023-05-09T04:37:18.979Z,28.70
2023-05-09T04:39:45.694Z,28.27
2023-05-09T04:42:12.475Z,27.65
2023-05-09T04:44:39.083Z,34.17
2023-05-09T04:47:05.906Z,27.38
2023-05-09T04:49:32.612Z,36.30
2023-05-09T04:51:59.258Z,26.50
2023-05-09T04:54:25.847Z,31.10
2023-05-09T04:56:53.245Z,35.03
2023-05-09T04:59:23.002Z,31.25
2023-05-09T05:01:49.699Z,30.98
2023-05-09T05:04:16.383Z,33.85
2023-05-09T05:06:43.047Z,30.67
2023-05-09T05:09:10.476Z,27.45
2023-05-09T05:11:37.073Z,27.83
2023-05-09T05:14:03.650Z,30.17
2023-05-09T05:16:30.326Z,32.40
2023-05-09T05:18:57.094Z,31.88
2023-05-09T05:21:23.679Z,31.27
2023-05-09T05:23:50.280Z,31.05
2023-05-09T05:26:16.897Z,26.83
2023-05-09T05:28:43.597Z,28.38
2023-05-09T05:31:10.267Z,32.53
2023-05-09T05:33:36.945Z,28.23
2023-05-09T05:36:03.798Z,23.23
2023-05-09T05:38:30.648Z,19.30
2023-05-09T05:40:57.310Z,25.88
2023-05-09T05:43:23.917Z,25.20
2023-05-09T05:45:51.098Z,24.02
2023-05-09T05:48:17.727Z,25.67
2023-05-09T05:50:44.400Z,32.72
2023-05-09T05:53:11.086Z,25.08
2023-05-09T05:55:37.800Z,29.48
2023-05-09T05:58:04.388Z,23.23
2023-05-09T06:00:31.013Z,26.65
2023-05-09T06:02:57.738Z,24.15
2023-05-09T06:05:24.494Z,26.88
2023-05-09T06:07:51.170Z,30.38
2023-05-09T06:10:17.836Z,31.45
2023-05-09T06:12:44.492Z,26.80
2023-05-09T06:15:11.498Z,24.15
2023-05-09T06:17:38.228Z,25.30
2023-05-09T06:20:05.720Z,23.52
2023-05-09T06:22:32.345Z,31.17
2023-05-09T06:24:59.002Z,27.83
2023-05-09T06:27:25.865Z,28.40
2023-05-09T06:29:52.707Z,20.30
2023-05-09T06:32:19.581Z,33.20
2023-05-09T06:34:46.270Z,24.77
2023-05-09T06:37:13.003Z,23.33
2023-05-09T06:39:39.886Z,30.85
2023-05-09T06:42:06.696Z,25.98
2023-05-09T06:44:33.486Z,25.75
2023-05-09T06:47:01.411Z,23.63
2023-05-09T06:49:28.111Z,24.70
2023-05-09T06:51:54.742Z,29.20
2023-05-09T06:54:21.466Z,21.20
2023-05-09T06:56:48.262Z,27.13
2023-05-09T06:59:16.720Z,21.02
2023-05-09T07:01:43.369Z,24.58
2023-05-09T07:04:10.089Z,25.10
2023-05-09T07:06:36.720Z,24.30
2023-05-09T07:09:04.292Z,27.95
2023-05-09T07:11:37.497Z,26.30
2023-05-09T07:14:04.438Z,28.42
2023-05-09T07:16:31.188Z,28.02
2023-05-09T07:18:57.880Z,27.77
2023-05-09T07:21:24.552Z,27.45
2023-05-09T07:23:51.190Z,23.67
2023-05-09T07:26:17.813Z,28.55
2023-05-09T07:28:44.487Z,23.35
2023-05-09T07:31:11.158Z,20.63
2023-05-09T07:33:37.908Z,25.42
2023-05-09T07:36:04.767Z,22.25
2023-05-09T07:38:31.452Z,18.95
2023-05-09T07:40:58.160Z,21.63
2023-05-09T07:43:24.867Z,16.65
2023-05-09T07:45:51.539Z,25.10
2023-05-09T07:48:18.294Z,19.45
2023-05-09T07:50:44.982Z,19.25
2023-05-09T07:53:11.683Z,18.70
2023-05-09T07:55:38.291Z,19.67
2023-05-09T07:58:04.959Z,22.92
2023-05-09T08:00:31.632Z,16.30
2023-05-09T08:02:58.472Z,19.85
2023-05-09T08:05:25.154Z,17.65
2023-05-09T08:07:51.979Z,15.48
2023-05-09T08:10:18.587Z,13.50
2023-05-09T08:12:45.280Z,16.92
2023-05-09T08:15:12.095Z,15.30
2023-05-09T08:17:38.948Z,15.90
2023-05-09T08:20:07.255Z,10.38
2023-05-09T08:22:33.964Z,9.48
2023-05-09T08:25:00.587Z,11.07
2023-05-09T08:27:27.229Z,13.07
2023-05-09T08:29:53.884Z,11.20
2023-05-09T08:32:20.569Z,10.52
2023-05-09T08:34:47.258Z,11.07
2023-05-09T08:37:15.194Z,13.57
2023-05-09T08:39:42.897Z,11.23
2023-05-09T08:42:10.372Z,11.25
2023-05-09T08:44:37.227Z,8.68
2023-05-09T08:47:05.071Z,12.57
2023-05-09T08:49:33.274Z,11.85
2023-05-09T08:52:00.204Z,12.38
2023-05-09T08:54:28.239Z,11.85
2023-05-09T08:56:55.243Z,7.45
2023-05-09T08:59:22.491Z,13.50
2023-05-09T09:01:50.077Z,11.63
2023-05-09T09:04:16.883Z,18.05
2023-05-09T09:06:44.202Z,14.98
2023-05-09T09:09:12.941Z,16.92
2023-05-09T09:11:41.868Z,15.82
2023-05-09T09:14:16.473Z,14.05
2023-05-09T09:16:44.829Z,10.20
2023-05-09T09:19:18.105Z,15.32
2023-05-09T09:21:47.266Z,15.98
2023-05-09T09:24:14.622Z,12.57
2023-05-09T09:26:49.687Z,12.90
2023-05-09T09:29:18.438Z,10.90
2023-05-09T09:31:46.642Z,14.15
2023-05-09T09:34:19.008Z,11.43
2023-05-09T09:36:46.896Z,12.43
2023-05-09T09:39:14.118Z,10.38
2023-05-09T09:41:41.168Z,12.77
2023-05-09T09:44:08.469Z,14.90
2023-05-09T09:46:50.651Z,10.15
2023-05-09T09:49:23.255Z,8.32
2023-05-09T09:51:52.351Z,10.65
2023-05-09T09:54:19.591Z,11.68
2023-05-09T09:56:48.623Z,13.02
2023-05-09T09:59:20.526Z,16.90
2023-05-09T10:01:59.281Z,10.40
2023-05-09T10:04:28.824Z,16.75
2023-05-09T10:07:00.837Z,13.43
2023-05-09T10:09:28.595Z,13.68
2023-05-09T10:11:56.910Z,8.15
2023-05-09T10:14:33.602Z,8.20
2023-05-09T10:17:03.473Z,10.63
2023-05-09T10:19:30.848Z,12.00
2023-05-09T10:22:02.451Z,14.85
2023-05-09T10:24:47.121Z,13.75
2023-05-09T10:27:17.420Z,13.20
2023-05-09T10:29:55.615Z,14.30
2023-05-09T10:32:36.534Z,10.30
2023-05-09T10:35:06.918Z,10.57
2023-05-09T10:37:34.516Z,13.70
2023-05-09T10:40:05.020Z,11.13
2023-05-09T10:42:32.602Z,11.15
2023-05-09T10:44:59.272Z,12.60
2023-05-09T10:47:28.787Z,11.70
2023-05-09T10:49:56.245Z,14.55
2023-05-09T10:52:23.181Z,10.40
2023-05-09T10:55:01.660Z,13.63
2023-05-09T10:57:30.134Z,9.43
2023-05-09T10:59:58.111Z,10.25
2023-05-09T11:02:31.012Z,9.43
2023-05-09T11:05:20.489Z,11.15
2023-05-09T11:07:47.206Z,8.88
2023-05-09T11:10:18.087Z,10.70
2023-05-09T11:12:57.761Z,13.27
2023-05-09T11:15:26.516Z,13.32
2023-05-09T11:18:10.596Z,12.95
2023-05-09T11:20:46.405Z,14.50
2023-05-09T11:23:17.425Z,10.55
2023-05-09T11:25:47.814Z,11.70
2023-05-09T11:28:38.137Z,11.25
2023-05-09T11:31:13.497Z,13.25
2023-05-09T11:33:41.841Z,11.30
2023-05-09T11:36:29.247Z,12.35
2023-05-09T11:39:11.017Z,15.40
2023-05-09T11:41:46.253Z,7.55
2023-05-09T11:44:21.937Z,11.25
2023-05-09T11:46:49.582Z,10.10
2023-05-09T11:49:17.242Z,11.30
2023-05-09T11:51:43.936Z,11.95
2023-05-09T11:54:12.198Z,14.25
2023-05-09T11:56:41.530Z,10.98
2023-05-09T11:59:08.523Z,10.50
2023-05-09T12:01:36.160Z,8.35
2023-05-09T12:04:03.067Z,10.23
2023-05-09T12:06:30.352Z,12.13
2023-05-09T12:08:57.818Z,10.48
2023-05-09T12:11:24.951Z,13.90
2023-05-09T12:13:52.683Z,10.98
2023-05-09T12:16:21.053Z,9.18
2023-05-09T12:18:52.736Z,8.77
2023-05-09T12:21:20.331Z,10.10
2023-05-09T12:23:49.958Z,11.07
2023-05-09T12:26:18.459Z,13.27
2023-05-09T12:28:45.706Z,10.18
2023-05-09T12:31:12.934Z,9.40
2023-05-09T12:33:40.095Z,10.30
2023-05-09T12:36:11.567Z,7.32
2023-05-09T12:38:38.450Z,9.95
2023-05-09T12:41:09.131Z,9.20
2023-05-09T12:43:39.958Z,7.65
2023-05-09T12:46:07.404Z,11.82
2023-05-09T12:48:39.953Z,9.95
2023-05-09T12:51:07.865Z,11.30
2023-05-09T12:53:39.819Z,8.18
2023-05-09T12:56:18.136Z,10.23
2023-05-09T12:58:53.186Z,9.43
2023-05-09T13:01:21.298Z,8.13
2023-05-09T13:04:02.671Z,11.32
2023-05-09T13:06:29.365Z,9.73
2023-05-09T13:09:05.755Z,9.40
2023-05-09T13:11:32.528Z,6.72
2023-05-09T13:13:59.209Z,7.80
2023-05-09T13:16:25.999Z,8.00
2023-05-09T13:18:52.740Z,5.95
2023-05-09T13:21:20.262Z,7.22
2023-05-09T13:23:46.985Z,6.43
2023-05-09T13:26:13.569Z,6.07
2023-05-09T13:28:40.553Z,6.63
2023-05-09T13:31:08.038Z,6.20
2023-05-09T13:33:35.026Z,7.78
2023-05-09T13:36:01.862Z,7.78
2023-05-09T13:38:30.837Z,6.47
2023-05-09T13:40:58.042Z,7.80
2023-05-09T13:43:24.678Z,8.07
2023-05-09T13:45:51.355Z,7.63
2023-05-09T13:48:18.289Z,8.43
2023-05-09T13:50:45.420Z,6.97
2023-05-09T13:53:12.315Z,8.95
2023-05-09T13:55:39.138Z,8.25
2023-05-09T13:58:06.406Z,8.73
2023-05-09T14:00:33.447Z,7.35
2023-05-09T14:03:04.228Z,8.38
2023-05-09T14:05:34.706Z,6.45
2023-05-09T14:08:01.736Z,4.80
2023-05-09T14:10:28.515Z,3.72
2023-05-09T14:12:55.312Z,3.55
2023-05-09T14:15:22.007Z,3.05
2023-05-09T14:17:49.504Z,3.35
2023-05-09T14:20:16.588Z,3.30
2023-05-09T14:22:43.619Z,3.42
2023-05-09T14:25:10.360Z,3.88
2023-05-09T14:27:37.258Z,3.63
2023-05-09T14:30:04.818Z,7.57
2023-05-09T14:32:31.731Z,6.85
2023-05-09T14:34:58.479Z,4.72
2023-05-09T14:37:25.243Z,6.40
2023-05-09T14:39:51.935Z,7.05
2023-05-09T14:42:19.691Z,5.32
2023-05-09T14:44:47.294Z,5.95
2023-05-09T14:47:13.986Z,5.18
2023-05-09T14:49:41.254Z,5.75
2023-05-09T14:52:07.984Z,5.30
2023-05-09T14:54:34.874Z,5.10
2023-05-09T14:57:04.444Z,4.03
2023-05-09T14:59:31.543Z,5.88
2023-05-09T15:01:58.226Z,6.03
2023-05-09T15:04:28.143Z,7.75
2023-05-09T15:06:54.928Z,5.32
2023-05-09T15:09:21.617Z,5.97
2023-05-09T15:11:49.229Z,7.85
2023-05-09T15:14:16.646Z,6.13
2023-05-09T15:16:43.565Z,4.95
2023-05-09T15:19:10.574Z,5.97
2023-05-09T15:21:37.231Z,6.40
2023-05-09T15:24:04.814Z,5.10
2023-05-09T15:26:32.042Z,5.47
2023-05-09T15:28:58.662Z,10.05
2023-05-09T15:31:25.734Z,4.32
2023-05-09T15:33:52.547Z,8.95
2023-05-09T15:36:19.219Z,4.85
2023-05-09T15:38:49.111Z,6.13
2023-05-09T15:41:16.271Z,4.70
2023-05-09T15:43:42.922Z,5.45
2023-05-09T15:46:09.705Z,6.53
2023-05-09T15:48:36.456Z,5.00
2023-05-09T15:51:04.047Z,3.97
2023-05-09T15:53:30.820Z,3.08
2023-05-09T15:55:57.540Z,3.60
2023-05-09T15:58:24.212Z,3.90
2023-05-09T16:00:50.947Z,2.88
2023-05-09T16:03:18.357Z,2.70
2023-05-09T16:05:45.436Z,2.75
2023-05-09T16:08:12.488Z,2.30
2023-05-09T16:10:39.158Z,2.80
2023-05-09T16:13:06.005Z,2.70
2023-05-09T16:15:32.836Z,9.18
2023-05-09T16:17:59.473Z,2.97
2023-05-09T16:20:26.135Z,2.75
2023-05-09T16:22:52.799Z,2.78
2023-05-09T16:25:19.629Z,2.78
2023-05-09T16:27:46.242Z,3.15
2023-05-09T16:30:13.798Z,2.63
2023-05-09T16:32:40.725Z,2.53
2023-05-09T16:35:15.730Z,3.67
2023-05-09T16:40:54.661Z,3.67
2023-05-09T16:43:21.293Z,3.25
2023-05-09T16:45:48.437Z,3.25
2023-05-09T16:48:18.457Z,4.70
2023-05-09T16:50:45.545Z,4.00
2023-05-09T16:53:12.523Z,3.00
2023-05-09T16:55:40.176Z,5.07
2023-05-09T16:58:08.198Z,4.35
2023-05-09T17:01:02.408Z,4.43
2023-05-09T17:03:33.208Z,3.10
2023-05-09T17:06:07.258Z,5.40
2023-05-09T17:08:34.309Z,2.88
2023-05-09T17:11:01.266Z,4.20
2023-05-09T17:13:30.124Z,2.70
2023-05-09T17:15:57.457Z,3.17
2023-05-09T17:18:35.865Z,2.58
2023-05-09T17:21:04.108Z,2.60
2023-05-09T17:23:30.700Z,3.38
2023-05-09T17:25:57.575Z,2.67
2023-05-09T17:28:24.159Z,2.63
2023-05-09T17:30:50.853Z,3.30
2023-05-09T17:33:17.809Z,3.38
2023-05-09T17:35:44.406Z,3.15
2023-05-09T17:38:11.082Z,2.28
2023-05-09T17:40:38.039Z,2.47
2023-05-09T17:43:04.986Z,4.07
2023-05-09T17:45:31.681Z,3.85
2023-05-09T17:47:59.697Z,4.38
2023-05-09T17:50:26.735Z,4.10
2023-05-09T17:52:53.452Z,5.88
2023-05-09T17:55:22.836Z,4.03
2023-05-09T17:57:49.456Z,5.25
2023-05-09T18:00:17.143Z,5.90
2023-05-09T18:02:44.278Z,4.82
2023-05-09T18:05:11.422Z,7.60
2023-05-09T18:07:39.958Z,6.93
2023-05-09T18:10:08.833Z,6.82
2023-05-09T18:12:37.135Z,7.78
2023-05-09T18:15:04.848Z,10.55
2023-05-09T18:17:31.590Z,7.65
2023-05-09T18:19:58.390Z,7.57
2023-05-09T18:22:25.149Z,7.40
2023-05-09T18:24:52.415Z,7.55
2023-05-09T18:27:19.013Z,9.10
2023-05-09T18:29:47.468Z,9.10
2023-05-09T18:32:14.396Z,7.30
2023-05-09T18:34:41.182Z,7.15
2023-05-09T18:37:08.451Z,8.25
2023-05-09T18:39:35.124Z,5.43
2023-05-09T18:42:01.970Z,6.88
2023-05-09T18:44:29.576Z,4.65
2023-05-09T18:46:57.790Z,5.05
2023-05-09T18:49:27.355Z,4.80
2023-05-09T18:51:55.006Z,6.80
2023-05-09T18:54:21.799Z,4.07
2023-05-09T18:56:49.603Z,4.15
2023-05-09T18:59:17.161Z,3.38
2023-05-09T19:01:44.143Z,2.65
2023-05-09T19:04:11.023Z,4.47
2023-05-09T19:06:37.841Z,3.72
2023-05-09T19:09:04.688Z,2.90
2023-05-09T19:11:31.582Z,3.05
2023-05-09T19:13:58.298Z,4.97
2023-05-09T19:16:26.673Z,3.65
2023-05-09T19:18:57.155Z,4.35
2023-05-09T19:21:24.351Z,5.47
2023-05-09T19:23:51.248Z,5.88
2023-05-09T19:26:19.526Z,6.57
2023-05-09T19:28:47.640Z,4.05
2023-05-09T19:31:15.405Z,5.10
2023-05-09T19:33:45.325Z,6.55
2023-05-09T19:36:12.156Z,5.78
2023-05-09T19:38:38.980Z,6.00
2023-05-09T19:41:05.838Z,6.25
2023-05-09T19:43:32.685Z,7.78
2023-05-09T19:46:00.073Z,7.20
2023-05-09T19:48:26.809Z,6.80
2023-05-09T19:50:58.031Z,7.38
2023-05-09T19:53:25.259Z,7.90
2023-05-09T19:55:52.368Z,8.30
2023-05-09T19:58:19.365Z,9.07
2023-05-09T20:00:46.233Z,9.20
2023-05-09T20:03:13.048Z,12.07
2023-05-09T20:05:39.975Z,9.00
2023-05-09T20:08:07.004Z,16.45
2023-05-09T20:10:34.217Z,13.20
2023-05-09T20:13:01.256Z,15.32
2023-05-09T20:15:28.100Z,17.73
2023-05-09T20:17:54.891Z,13.52
2023-05-09T20:20:21.794Z,12.55
2023-05-09T20:22:48.478Z,16.08
2023-05-09T20:25:15.357Z,15.77
2023-05-09T20:27:42.054Z,26.30
2023-05-09T20:30:09.432Z,27.40
2023-05-09T20:32:39.265Z,21.88
2023-05-09T20:35:06.526Z,29.92
2023-05-09T20:37:33.363Z,33.08
2023-05-09T20:40:01.807Z,35.42
2023-05-09T20:42:28.939Z,34.17
2023-05-09T20:44:55.670Z,37.72
2023-05-09T20:47:22.473Z,34.00
2023-05-09T20:49:49.236Z,35.50
2023-05-09T20:52:16.265Z,43.35
2023-05-09T20:54:43.081Z,34.75
2023-05-09T20:57:09.868Z,43.33
2023-05-09T20:59:36.589Z,34.45
2023-05-09T21:02:03.310Z,36.20
2023-05-09T21:04:30.001Z,41.25
2023-05-09T21:06:56.698Z,37.67
2023-05-09T21:09:23.347Z,35.33
2023-05-09T21:11:50.060Z,37.33
2023-05-09T21:14:16.825Z,36.28
2023-05-09T21:16:44.105Z,46.45
2023-05-09T21:19:10.912Z,31.98
2023-05-09T21:21:37.645Z,37.83
2023-05-09T21:24:08.886Z,40.95
2023-05-09T21:26:36.380Z,27.90
2023-05-09T21:29:03.419Z,34.80
2023-05-09T21:31:30.177Z,28.67
2023-05-09T21:33:57.834Z,34.63
2023-05-09T21:36:24.667Z,36.67
2023-05-09T21:38:51.400Z,30.08
2023-05-09T21:41:18.096Z,32.10
2023-05-09T21:43:44.885Z,37.67
2023-05-09T21:46:12.242Z,40.45
2023-05-09T21:48:38.934Z,34.15
2023-05-09T21:51:07.538Z,34.35
2023-05-09T21:53:34.254Z,39.05
2023-05-09T21:56:01.112Z,35.83
2023-05-09T21:58:27.784Z,37.72
2023-05-09T22:00:54.435Z,37.10
2023-05-09T22:03:21.268Z,39.42
2023-05-09T22:05:48.028Z,46.05
2023-05-09T22:08:14.964Z,35.33
2023-05-09T22:10:41.833Z,42.40
2023-05-09T22:13:08.674Z,49.60
2023-05-09T22:15:35.369Z,38.08
2023-05-09T22:18:02.295Z,40.75
2023-05-09T22:20:28.944Z,50.17
2023-05-09T22:22:56.268Z,40.45
2023-05-09T22:25:22.932Z,41.00
2023-05-09T22:27:49.632Z,44.50
2023-05-09T22:30:16.800Z,39.38
2023-05-09T22:32:43.625Z,58.28
2023-05-09T22:35:10.431Z,43.35
2023-05-09T22:37:37.380Z,36.20
2023-05-09T22:40:05.219Z,47.08
2023-05-09T22:42:31.897Z,36.08
2023-05-09T22:44:58.932Z,40.45
2023-05-09T22:47:25.626Z,45.65
2023-05-09T22:49:52.332Z,38.28
2023-05-09T22:52:19.084Z,33.22
2023-05-09T22:54:46.004Z,36.05
2023-05-09T22:57:12.764Z,40.15
2023-05-09T22:59:39.509Z,39.72
2023-05-09T23:02:06.263Z,44.03
2023-05-09T23:04:33.023Z,40.28
2023-05-09T23:06:59.714Z,38.78
2023-05-09T23:09:26.748Z,39.85
2023-05-09T23:11:53.397Z,35.92
2023-05-09T23:14:20.033Z,36.33
2023-05-09T23:16:46.871Z,35.08
2023-05-09T23:19:13.534Z,43.45
2023-05-09T23:21:40.501Z,40.42
2023-05-09T23:24:07.355Z,38.90
2023-05-09T23:26:34.030Z,39.00
2023-05-09T23:29:00.763Z,29.70
2023-05-09T23:31:27.426Z,41.30
2023-05-09T23:33:54.081Z,41.67
2023-05-09T23:36:20.792Z,45.65
2023-05-09T23:38:47.428Z,38.28
2023-05-09T23:41:14.374Z,35.20
2023-05-09T23:43:41.069Z,34.50
2023-05-09T23:46:07.771Z,38.38
2023-05-09T23:48:34.416Z,44.47
2023-05-09T23:51:01.231Z,34.80
2023-05-09T23:53:27.935Z,44.10
2023-05-09T23:55:54.542Z,35.65
2023-05-09T23:58:21.161Z,32.75
